sensor_id;sensor_type;location;lat;lon;timestamp;temperature;humidity
7016;DHT22;3548;48.402;9.990;2023-05-24T00:00:33;13.10;99.90
7016;DHT22;3548;48.402;9.990;2023-05-24T00:02:59;13.10;99.90
7016;DHT22;3548;48.402;9.990;2023-05-24T00:05:24;13.10;99.90
7016;DHT22;3548;48.402;9.990;2023-05-24T00:07:51;13.00;99.90
7016;DHT22;3548;48.402;9.990;2023-05-24T00:10:17;12.90;99.90
7016;DHT22;3548;48.402;9.990;2023-05-24T00:12:43;12.90;99.90
7016;DHT22;3548;48.402;9.990;2023-05-24T00:15:09;12.80;99.90
7016;DHT22;3548;48.402;9.990;2023-05-24T00:17:34;12.80;99.90
7016;DHT22;3548;48.402;9.990;2023-05-24T00:20:07;12.80;99.90
7016;DHT22;3548;48.402;9.990;2023-05-24T00:22:34;12.80;99.90
7016;DHT22;3548;48.402;9.990;2023-05-24T00:25:03;12.80;99.90
7016;DHT22;3548;48.402;9.990;2023-05-24T00:27:29;12.70;99.90
7016;DHT22;3548;48.402;9.990;2023-05-24T00:29:55;12.70;99.90
7016;DHT22;3548;48.402;9.990;2023-05-24T00:32:20;12.60;99.90
7016;DHT22;3548;48.402;9.990;2023-05-24T00:34:46;12.60;99.90
7016;DHT22;3548;48.402;9.990;2023-05-24T00:37:11;12.50;99.90
7016;DHT22;3548;48.402;9.990;2023-05-24T00:39:37;12.50;99.90
7016;DHT22;3548;48.402;9.990;2023-05-24T00:42:03;12.50;99.90
7016;DHT22;3548;48.402;9.990;2023-05-24T00:44:29;12.40;99.90
7016;DHT22;3548;48.402;9.990;2023-05-24T00:46:54;12.40;99.90
7016;DHT22;3548;48.402;9.990;2023-05-24T00:49:20;12.40;99.90
7016;DHT22;3548;48.402;9.990;2023-05-24T00:51:47;12.40;99.90
7016;DHT22;3548;48.402;9.990;2023-05-24T00:54:15;12.40;99.90
7016;DHT22;3548;48.402;9.990;2023-05-24T00:56:42;12.30;99.90
7016;DHT22;3548;48.402;9.990;2023-05-24T00:59:08;12.30;99.90
7016;DHT22;3548;48.402;9.990;2023-05-24T01:01:33;12.30;99.90
7016;DHT22;3548;48.402;9.990;2023-05-24T01:03:59;12.30;99.90
7016;DHT22;3548;48.402;9.990;2023-05-24T01:06:26;12.30;99.90
7016;DHT22;3548;48.402;9.990;2023-05-24T01:09:16;12.30;99.90
7016;DHT22;3548;48.402;9.990;2023-05-24T01:12:14;12.30;99.90
7016;DHT22;3548;48.402;9.990;2023-05-24T01:14:57;12.30;99.90
7016;DHT22;3548;48.402;9.990;2023-05-24T01:20:05;12.20;99.90
7016;DHT22;3548;48.402;9.990;2023-05-24T01:22:57;12.20;99.90
7016;DHT22;3548;48.402;9.990;2023-05-24T01:25:37;12.20;99.90
7016;DHT22;3548;48.402;9.990;2023-05-24T01:28:04;12.20;99.90
7016;DHT22;3548;48.402;9.990;2023-05-24T01:30:30;12.20;99.90
7016;DHT22;3548;48.402;9.990;2023-05-24T01:32:57;12.20;99.90
7016;DHT22;3548;48.402;9.990;2023-05-24T01:35:22;12.20;99.90
7016;DHT22;3548;48.402;9.990;2023-05-24T01:37:48;12.10;99.90
7016;DHT22;3548;48.402;9.990;2023-05-24T01:40:13;12.10;99.90
7016;DHT22;3548;48.402;9.990;2023-05-24T01:42:51;12.10;99.90
7016;DHT22;3548;48.402;9.990;2023-05-24T01:45:37;12.00;99.90
7016;DHT22;3548;48.402;9.990;2023-05-24T01:50:57;12.00;99.90
7016;DHT22;3548;48.402;9.990;2023-05-24T01:53:28;12.00;99.90
7016;DHT22;3548;48.402;9.990;2023-05-24T01:55:58;12.00;99.90
7016;DHT22;3548;48.402;9.990;2023-05-24T01:58:26;12.00;99.90
7016;DHT22;3548;48.402;9.990;2023-05-24T02:00:52;12.00;99.90
7016;DHT22;3548;48.402;9.990;2023-05-24T02:03:18;12.00;99.90
7016;DHT22;3548;48.402;9.990;2023-05-24T02:05:47;12.00;99.90
7016;DHT22;3548;48.402;9.990;2023-05-24T02:08:13;11.90;99.90
7016;DHT22;3548;48.402;9.990;2023-05-24T02:10:39;11.90;99.90
7016;DHT22;3548;48.402;9.990;2023-05-24T02:13:05;11.90;99.90
7016;DHT22;3548;48.402;9.990;2023-05-24T02:15:31;11.90;99.90
7016;DHT22;3548;48.402;9.990;2023-05-24T02:17:57;11.90;99.90
7016;DHT22;3548;48.402;9.990;2023-05-24T02:20:24;11.90;99.90
7016;DHT22;3548;48.402;9.990;2023-05-24T02:22:50;11.90;99.90
7016;DHT22;3548;48.402;9.990;2023-05-24T02:25:16;11.90;99.90
7016;DHT22;3548;48.402;9.990;2023-05-24T02:27:42;11.90;99.90
7016;DHT22;3548;48.402;9.990;2023-05-24T02:30:11;11.80;99.90
7016;DHT22;3548;48.402;9.990;2023-05-24T02:32:37;11.80;99.90
7016;DHT22;3548;48.402;9.990;2023-05-24T02:35:03;11.80;99.90
7016;DHT22;3548;48.402;9.990;2023-05-24T02:37:28;11.80;99.90
7016;DHT22;3548;48.402;9.990;2023-05-24T02:39:54;11.80;99.90
7016;DHT22;3548;48.402;9.990;2023-05-24T02:42:20;11.80;99.90
7016;DHT22;3548;48.402;9.990;2023-05-24T02:44:45;11.80;99.90
7016;DHT22;3548;48.402;9.990;2023-05-24T02:47:14;11.80;99.90
7016;DHT22;3548;48.402;9.990;2023-05-24T02:49:39;11.70;99.90
7016;DHT22;3548;48.402;9.990;2023-05-24T02:52:06;11.70;99.90
7016;DHT22;3548;48.402;9.990;2023-05-24T02:54:31;11.70;99.90
7016;DHT22;3548;48.402;9.990;2023-05-24T02:56:57;11.70;99.90
7016;DHT22;3548;48.402;9.990;2023-05-24T02:59:23;11.70;99.90
7016;DHT22;3548;48.402;9.990;2023-05-24T03:01:49;11.60;99.90
7016;DHT22;3548;48.402;9.990;2023-05-24T03:04:15;11.60;99.90
7016;DHT22;3548;48.402;9.990;2023-05-24T03:06:40;11.50;99.90
7016;DHT22;3548;48.402;9.990;2023-05-24T03:09:06;11.50;99.90
7016;DHT22;3548;48.402;9.990;2023-05-24T03:11:32;11.40;99.90
7016;DHT22;3548;48.402;9.990;2023-05-24T03:13:57;11.40;99.90
7016;DHT22;3548;48.402;9.990;2023-05-24T03:16:23;11.30;99.90
7016;DHT22;3548;48.402;9.990;2023-05-24T03:18:49;11.30;99.90
7016;DHT22;3548;48.402;9.990;2023-05-24T03:21:16;11.30;99.90
7016;DHT22;3548;48.402;9.990;2023-05-24T03:23:42;11.20;99.90
7016;DHT22;3548;48.402;9.990;2023-05-24T03:26:07;11.20;99.90
7016;DHT22;3548;48.402;9.990;2023-05-24T03:28:33;11.10;99.90
7016;DHT22;3548;48.402;9.990;2023-05-24T03:30:58;11.10;99.90
7016;DHT22;3548;48.402;9.990;2023-05-24T03:33:24;11.10;99.90
7016;DHT22;3548;48.402;9.990;2023-05-24T03:35:50;11.00;99.90
7016;DHT22;3548;48.402;9.990;2023-05-24T03:38:15;10.90;99.90
7016;DHT22;3548;48.402;9.990;2023-05-24T03:40:41;10.90;99.90
7016;DHT22;3548;48.402;9.990;2023-05-24T03:43:06;10.90;99.90
7016;DHT22;3548;48.402;9.990;2023-05-24T03:45:32;10.90;99.90
7016;DHT22;3548;48.402;9.990;2023-05-24T03:47:57;10.90;99.90
7016;DHT22;3548;48.402;9.990;2023-05-24T03:50:23;10.80;99.90
7016;DHT22;3548;48.402;9.990;2023-05-24T03:52:48;10.80;99.90
7016;DHT22;3548;48.402;9.990;2023-05-24T03:55:14;10.80;99.90
7016;DHT22;3548;48.402;9.990;2023-05-24T03:57:40;10.80;99.90
7016;DHT22;3548;48.402;9.990;2023-05-24T04:00:09;10.80;99.90
7016;DHT22;3548;48.402;9.990;2023-05-24T04:02:35;10.80;99.90
7016;DHT22;3548;48.402;9.990;2023-05-24T04:05:05;10.80;99.90
7016;DHT22;3548;48.402;9.990;2023-05-24T04:07:37;10.80;99.90
7016;DHT22;3548;48.402;9.990;2023-05-24T04:10:07;10.80;99.90
7016;DHT22;3548;48.402;9.990;2023-05-24T04:12:33;10.80;99.90
7016;DHT22;3548;48.402;9.990;2023-05-24T04:15:00;10.80;99.90
7016;DHT22;3548;48.402;9.990;2023-05-24T04:17:27;10.80;99.90
7016;DHT22;3548;48.402;9.990;2023-05-24T04:19:54;10.80;99.90
7016;DHT22;3548;48.402;9.990;2023-05-24T04:22:20;10.80;99.90
7016;DHT22;3548;48.402;9.990;2023-05-24T04:24:45;10.80;99.90
7016;DHT22;3548;48.402;9.990;2023-05-24T04:27:11;10.80;99.90
7016;DHT22;3548;48.402;9.990;2023-05-24T04:29:40;10.80;99.90
7016;DHT22;3548;48.402;9.990;2023-05-24T04:32:06;10.80;99.90
7016;DHT22;3548;48.402;9.990;2023-05-24T04:34:34;10.80;99.90
7016;DHT22;3548;48.402;9.990;2023-05-24T04:37:00;10.80;99.90
7016;DHT22;3548;48.402;9.990;2023-05-24T04:39:27;10.90;99.90
7016;DHT22;3548;48.402;9.990;2023-05-24T04:41:53;10.90;99.90
7016;DHT22;3548;48.402;9.990;2023-05-24T04:44:20;10.90;99.90
7016;DHT22;3548;48.402;9.990;2023-05-24T04:46:46;10.90;99.90
7016;DHT22;3548;48.402;9.990;2023-05-24T04:49:11;10.90;99.90
7016;DHT22;3548;48.402;9.990;2023-05-24T04:51:37;10.90;99.90
7016;DHT22;3548;48.402;9.990;2023-05-24T04:54:06;10.90;99.90
7016;DHT22;3548;48.402;9.990;2023-05-24T04:56:36;10.90;99.90
7016;DHT22;3548;48.402;9.990;2023-05-24T04:59:06;11.00;99.90
7016;DHT22;3548;48.402;9.990;2023-05-24T05:01:32;11.00;99.90
7016;DHT22;3548;48.402;9.990;2023-05-24T05:03:58;11.00;99.90
7016;DHT22;3548;48.402;9.990;2023-05-24T05:06:24;11.10;99.90
7016;DHT22;3548;48.402;9.990;2023-05-24T05:08:50;11.10;99.90
7016;DHT22;3548;48.402;9.990;2023-05-24T05:11:16;11.00;99.90
7016;DHT22;3548;48.402;9.990;2023-05-24T05:13:43;11.00;99.90
7016;DHT22;3548;48.402;9.990;2023-05-24T05:16:09;11.00;99.90
7016;DHT22;3548;48.402;9.990;2023-05-24T05:18:35;11.10;99.90
7016;DHT22;3548;48.402;9.990;2023-05-24T05:21:01;11.10;99.90
7016;DHT22;3548;48.402;9.990;2023-05-24T05:23:27;11.00;99.90
7016;DHT22;3548;48.402;9.990;2023-05-24T05:25:53;11.00;99.90
7016;DHT22;3548;48.402;9.990;2023-05-24T05:28:19;11.00;99.90
7016;DHT22;3548;48.402;9.990;2023-05-24T05:30:44;11.00;99.90
7016;DHT22;3548;48.402;9.990;2023-05-24T05:33:10;11.10;99.90
7016;DHT22;3548;48.402;9.990;2023-05-24T05:35:36;11.20;99.90
7016;DHT22;3548;48.402;9.990;2023-05-24T05:38:01;11.30;99.90
7016;DHT22;3548;48.402;9.990;2023-05-24T05:40:27;11.30;99.90
7016;DHT22;3548;48.402;9.990;2023-05-24T05:42:52;11.40;99.90
7016;DHT22;3548;48.402;9.990;2023-05-24T05:45:18;11.40;99.90
7016;DHT22;3548;48.402;9.990;2023-05-24T05:47:43;11.40;99.90
7016;DHT22;3548;48.402;9.990;2023-05-24T05:50:09;11.40;99.90
7016;DHT22;3548;48.402;9.990;2023-05-24T05:52:35;11.40;99.90
7016;DHT22;3548;48.402;9.990;2023-05-24T05:55:01;11.50;99.90
7016;DHT22;3548;48.402;9.990;2023-05-24T05:57:26;11.50;99.90
7016;DHT22;3548;48.402;9.990;2023-05-24T05:59:53;11.50;99.90
7016;DHT22;3548;48.402;9.990;2023-05-24T06:02:19;11.50;99.90
7016;DHT22;3548;48.402;9.990;2023-05-24T06:04:46;11.60;99.90
7016;DHT22;3548;48.402;9.990;2023-05-24T06:07:12;11.60;99.90
7016;DHT22;3548;48.402;9.990;2023-05-24T06:09:38;11.60;99.90
7016;DHT22;3548;48.402;9.990;2023-05-24T06:12:04;11.60;99.90
7016;DHT22;3548;48.402;9.990;2023-05-24T06:14:29;11.60;99.90
7016;DHT22;3548;48.402;9.990;2023-05-24T06:16:56;11.60;99.90
7016;DHT22;3548;48.402;9.990;2023-05-24T06:19:22;11.60;99.90
7016;DHT22;3548;48.402;9.990;2023-05-24T06:21:48;11.60;99.90
7016;DHT22;3548;48.402;9.990;2023-05-24T06:24:16;11.50;99.90
7016;DHT22;3548;48.402;9.990;2023-05-24T06:26:50;11.50;99.90
7016;DHT22;3548;48.402;9.990;2023-05-24T06:29:16;11.40;99.90
7016;DHT22;3548;48.402;9.990;2023-05-24T06:31:44;11.40;99.90
7016;DHT22;3548;48.402;9.990;2023-05-24T06:34:14;11.30;99.90
7016;DHT22;3548;48.402;9.990;2023-05-24T06:36:46;11.20;99.90
7016;DHT22;3548;48.402;9.990;2023-05-24T06:39:13;11.20;99.90
7016;DHT22;3548;48.402;9.990;2023-05-24T06:41:39;11.20;99.90
7016;DHT22;3548;48.402;9.990;2023-05-24T06:44:06;11.30;99.90
7016;DHT22;3548;48.402;9.990;2023-05-24T06:46:32;11.30;99.90
7016;DHT22;3548;48.402;9.990;2023-05-24T06:48:58;11.40;99.90
7016;DHT22;3548;48.402;9.990;2023-05-24T06:51:23;11.50;99.90
7016;DHT22;3548;48.402;9.990;2023-05-24T06:53:49;11.60;99.90
7016;DHT22;3548;48.402;9.990;2023-05-24T06:56:16;11.60;99.90
7016;DHT22;3548;48.402;9.990;2023-05-24T06:58:42;11.60;99.90
7016;DHT22;3548;48.402;9.990;2023-05-24T07:01:08;11.70;99.90
7016;DHT22;3548;48.402;9.990;2023-05-24T07:03:34;11.70;99.90
7016;DHT22;3548;48.402;9.990;2023-05-24T07:06:00;11.80;99.90
7016;DHT22;3548;48.402;9.990;2023-05-24T07:08:26;11.80;99.90
7016;DHT22;3548;48.402;9.990;2023-05-24T07:10:52;11.90;99.90
7016;DHT22;3548;48.402;9.990;2023-05-24T07:13:18;12.00;99.90
7016;DHT22;3548;48.402;9.990;2023-05-24T07:15:45;12.20;99.90
7016;DHT22;3548;48.402;9.990;2023-05-24T07:18:11;12.40;99.90
7016;DHT22;3548;48.402;9.990;2023-05-24T07:20:37;12.60;99.90
7016;DHT22;3548;48.402;9.990;2023-05-24T07:23:04;12.70;99.90
7016;DHT22;3548;48.402;9.990;2023-05-24T07:25:31;12.60;99.90
7016;DHT22;3548;48.402;9.990;2023-05-24T07:27:58;12.70;99.90
7016;DHT22;3548;48.402;9.990;2023-05-24T07:30:23;12.80;99.90
7016;DHT22;3548;48.402;9.990;2023-05-24T07:32:49;13.00;99.90
7016;DHT22;3548;48.402;9.990;2023-05-24T07:35:15;13.10;99.90
7016;DHT22;3548;48.402;9.990;2023-05-24T07:37:41;13.20;99.90
7016;DHT22;3548;48.402;9.990;2023-05-24T07:40:07;13.30;99.90
7016;DHT22;3548;48.402;9.990;2023-05-24T07:42:37;13.30;99.90
7016;DHT22;3548;48.402;9.990;2023-05-24T07:45:04;13.20;99.90
7016;DHT22;3548;48.402;9.990;2023-05-24T07:47:30;13.10;99.90
7016;DHT22;3548;48.402;9.990;2023-05-24T07:49:56;13.10;99.90
7016;DHT22;3548;48.402;9.990;2023-05-24T07:52:22;13.10;99.90
7016;DHT22;3548;48.402;9.990;2023-05-24T07:54:48;13.20;99.90
7016;DHT22;3548;48.402;9.990;2023-05-24T07:57:14;13.20;99.90
7016;DHT22;3548;48.402;9.990;2023-05-24T07:59:39;13.20;99.90
7016;DHT22;3548;48.402;9.990;2023-05-24T08:02:05;13.10;99.90
7016;DHT22;3548;48.402;9.990;2023-05-24T08:04:36;13.10;99.90
7016;DHT22;3548;48.402;9.990;2023-05-24T08:07:01;13.20;99.90
7016;DHT22;3548;48.402;9.990;2023-05-24T08:09:28;13.30;99.90
7016;DHT22;3548;48.402;9.990;2023-05-24T08:11:54;13.50;99.90
7016;DHT22;3548;48.402;9.990;2023-05-24T08:14:21;13.50;99.90
7016;DHT22;3548;48.402;9.990;2023-05-24T08:16:47;13.50;99.90
7016;DHT22;3548;48.402;9.990;2023-05-24T08:19:13;13.50;99.90
7016;DHT22;3548;48.402;9.990;2023-05-24T08:21:38;13.50;99.90
7016;DHT22;3548;48.402;9.990;2023-05-24T08:24:06;13.60;99.90
7016;DHT22;3548;48.402;9.990;2023-05-24T08:26:32;13.60;99.90
7016;DHT22;3548;48.402;9.990;2023-05-24T08:28:58;13.60;99.90
7016;DHT22;3548;48.402;9.990;2023-05-24T08:31:23;13.60;99.90
7016;DHT22;3548;48.402;9.990;2023-05-24T08:33:49;13.60;99.90
7016;DHT22;3548;48.402;9.990;2023-05-24T08:36:16;13.70;99.90
7016;DHT22;3548;48.402;9.990;2023-05-24T08:38:42;13.70;99.90
7016;DHT22;3548;48.402;9.990;2023-05-24T08:41:10;13.60;99.90
7016;DHT22;3548;48.402;9.990;2023-05-24T08:43:37;13.60;99.90
7016;DHT22;3548;48.402;9.990;2023-05-24T08:46:04;13.60;99.90
7016;DHT22;3548;48.402;9.990;2023-05-24T08:48:30;13.60;99.90
7016;DHT22;3548;48.402;9.990;2023-05-24T08:50:56;13.50;99.90
7016;DHT22;3548;48.402;9.990;2023-05-24T08:53:23;13.40;99.90
7016;DHT22;3548;48.402;9.990;2023-05-24T08:55:49;13.50;99.90
7016;DHT22;3548;48.402;9.990;2023-05-24T08:58:18;13.60;99.90
7016;DHT22;3548;48.402;9.990;2023-05-24T09:00:44;13.60;99.90
7016;DHT22;3548;48.402;9.990;2023-05-24T09:03:10;13.60;99.90
7016;DHT22;3548;48.402;9.990;2023-05-24T09:05:37;13.40;99.90
7016;DHT22;3548;48.402;9.990;2023-05-24T09:08:05;13.30;99.90
7016;DHT22;3548;48.402;9.990;2023-05-24T09:10:32;13.30;99.90
7016;DHT22;3548;48.402;9.990;2023-05-24T09:13:01;13.30;99.90
7016;DHT22;3548;48.402;9.990;2023-05-24T09:15:27;13.30;99.90
7016;DHT22;3548;48.402;9.990;2023-05-24T09:17:52;13.30;99.90
7016;DHT22;3548;48.402;9.990;2023-05-24T09:20:20;13.50;99.90
7016;DHT22;3548;48.402;9.990;2023-05-24T09:22:50;13.60;99.90
7016;DHT22;3548;48.402;9.990;2023-05-24T09:25:17;13.70;99.90
7016;DHT22;3548;48.402;9.990;2023-05-24T09:27:49;13.80;99.90
7016;DHT22;3548;48.402;9.990;2023-05-24T09:30:14;13.80;99.90
7016;DHT22;3548;48.402;9.990;2023-05-24T09:32:41;13.90;99.90
7016;DHT22;3548;48.402;9.990;2023-05-24T09:35:18;13.90;99.90
7016;DHT22;3548;48.402;9.990;2023-05-24T09:37:45;13.80;99.90
7016;DHT22;3548;48.402;9.990;2023-05-24T09:40:18;13.80;99.90
7016;DHT22;3548;48.402;9.990;2023-05-24T09:42:47;13.80;99.90
7016;DHT22;3548;48.402;9.990;2023-05-24T09:45:16;13.90;99.90
7016;DHT22;3548;48.402;9.990;2023-05-24T09:47:42;14.00;99.90
7016;DHT22;3548;48.402;9.990;2023-05-24T09:50:16;14.00;99.90
7016;DHT22;3548;48.402;9.990;2023-05-24T09:52:42;13.90;99.90
7016;DHT22;3548;48.402;9.990;2023-05-24T09:55:19;13.90;99.80
7016;DHT22;3548;48.402;9.990;2023-05-24T09:58:03;13.80;99.50
7016;DHT22;3548;48.402;9.990;2023-05-24T10:00:33;13.70;99.70
7016;DHT22;3548;48.402;9.990;2023-05-24T10:03:03;13.80;99.70
7016;DHT22;3548;48.402;9.990;2023-05-24T10:05:29;13.80;99.70
7016;DHT22;3548;48.402;9.990;2023-05-24T10:07:56;13.70;99.60
7016;DHT22;3548;48.402;9.990;2023-05-24T10:10:28;13.70;99.90
7016;DHT22;3548;48.402;9.990;2023-05-24T10:12:55;13.70;99.90
7016;DHT22;3548;48.402;9.990;2023-05-24T10:15:21;13.80;99.80
7016;DHT22;3548;48.402;9.990;2023-05-24T10:17:46;13.80;99.60
7016;DHT22;3548;48.402;9.990;2023-05-24T10:20:12;14.00;99.40
7016;DHT22;3548;48.402;9.990;2023-05-24T10:22:43;14.10;99.00
7016;DHT22;3548;48.402;9.990;2023-05-24T10:25:14;14.20;99.00
7016;DHT22;3548;48.402;9.990;2023-05-24T10:27:44;14.20;99.40
7016;DHT22;3548;48.402;9.990;2023-05-24T10:30:23;14.30;99.00
7016;DHT22;3548;48.402;9.990;2023-05-24T10:32:52;14.30;98.80
7016;DHT22;3548;48.402;9.990;2023-05-24T10:35:20;14.20;98.40
7016;DHT22;3548;48.402;9.990;2023-05-24T10:37:47;14.10;98.70
7016;DHT22;3548;48.402;9.990;2023-05-24T10:40:18;14.10;99.20
7016;DHT22;3548;48.402;9.990;2023-05-24T10:42:45;14.20;99.30
7016;DHT22;3548;48.402;9.990;2023-05-24T10:48:00;14.50;98.30
7016;DHT22;3548;48.402;9.990;2023-05-24T10:50:27;14.50;98.10
7016;DHT22;3548;48.402;9.990;2023-05-24T10:53:10;14.50;97.80
7016;DHT22;3548;48.402;9.990;2023-05-24T10:56:00;14.50;98.20
7016;DHT22;3548;48.402;9.990;2023-05-24T11:00:57;14.70;97.70
7016;DHT22;3548;48.402;9.990;2023-05-24T11:03:23;14.70;97.40
7016;DHT22;3548;48.402;9.990;2023-05-24T11:05:54;14.70;97.40
7016;DHT22;3548;48.402;9.990;2023-05-24T11:08:22;14.70;97.20
7016;DHT22;3548;48.402;9.990;2023-05-24T11:10:49;14.60;97.60
7016;DHT22;3548;48.402;9.990;2023-05-24T11:13:14;14.50;96.60
7016;DHT22;3548;48.402;9.990;2023-05-24T11:15:49;14.40;96.90
7016;DHT22;3548;48.402;9.990;2023-05-24T11:18:16;14.30;96.60
7016;DHT22;3548;48.402;9.990;2023-05-24T11:20:43;14.30;97.00
7016;DHT22;3548;48.402;9.990;2023-05-24T11:23:13;14.30;96.40
7016;DHT22;3548;48.402;9.990;2023-05-24T11:25:39;14.40;96.30
7016;DHT22;3548;48.402;9.990;2023-05-24T11:28:09;14.50;96.30
7016;DHT22;3548;48.402;9.990;2023-05-24T11:30:46;14.60;96.20
7016;DHT22;3548;48.402;9.990;2023-05-24T11:33:21;14.60;96.50
7016;DHT22;3548;48.402;9.990;2023-05-24T11:35:53;14.60;96.70
7016;DHT22;3548;48.402;9.990;2023-05-24T11:38:20;14.70;96.20
7016;DHT22;3548;48.402;9.990;2023-05-24T11:40:47;14.60;96.40
7016;DHT22;3548;48.402;9.990;2023-05-24T11:43:15;14.60;97.10
7016;DHT22;3548;48.402;9.990;2023-05-24T11:45:42;14.50;97.40
7016;DHT22;3548;48.402;9.990;2023-05-24T11:48:09;14.40;96.90
7016;DHT22;3548;48.402;9.990;2023-05-24T11:50:39;14.30;97.50
7016;DHT22;3548;48.402;9.990;2023-05-24T11:53:05;14.20;97.30
7016;DHT22;3548;48.402;9.990;2023-05-24T11:55:33;14.20;97.20
7016;DHT22;3548;48.402;9.990;2023-05-24T11:58:00;14.10;97.10
7016;DHT22;3548;48.402;9.990;2023-05-24T12:00:26;14.00;97.60
7016;DHT22;3548;48.402;9.990;2023-05-24T12:02:54;14.00;97.50
7016;DHT22;3548;48.402;9.990;2023-05-24T12:05:20;13.90;97.40
7016;DHT22;3548;48.402;9.990;2023-05-24T12:07:46;13.90;97.40
7016;DHT22;3548;48.402;9.990;2023-05-24T12:10:16;13.80;97.50
7016;DHT22;3548;48.402;9.990;2023-05-24T12:12:45;13.80;98.00
7016;DHT22;3548;48.402;9.990;2023-05-24T12:15:11;13.70;97.60
7016;DHT22;3548;48.402;9.990;2023-05-24T12:17:39;13.60;97.90
7016;DHT22;3548;48.402;9.990;2023-05-24T12:20:05;13.50;97.60
7016;DHT22;3548;48.402;9.990;2023-05-24T12:22:30;13.50;97.70
7016;DHT22;3548;48.402;9.990;2023-05-24T12:24:56;13.50;98.40
7016;DHT22;3548;48.402;9.990;2023-05-24T12:27:29;13.60;97.70
7016;DHT22;3548;48.402;9.990;2023-05-24T12:29:56;13.60;97.60
7016;DHT22;3548;48.402;9.990;2023-05-24T12:32:30;13.60;97.00
7016;DHT22;3548;48.402;9.990;2023-05-24T12:34:56;13.60;97.00
7016;DHT22;3548;48.402;9.990;2023-05-24T12:37:22;13.60;97.00
7016;DHT22;3548;48.402;9.990;2023-05-24T12:39:47;13.50;97.50
7016;DHT22;3548;48.402;9.990;2023-05-24T12:42:13;13.50;96.90
7016;DHT22;3548;48.402;9.990;2023-05-24T12:44:38;13.50;97.20
7016;DHT22;3548;48.402;9.990;2023-05-24T12:47:06;13.50;97.40
7016;DHT22;3548;48.402;9.990;2023-05-24T12:49:32;13.60;97.70
7016;DHT22;3548;48.402;9.990;2023-05-24T12:51:58;13.70;96.90
7016;DHT22;3548;48.402;9.990;2023-05-24T12:54:27;13.80;96.70
7016;DHT22;3548;48.402;9.990;2023-05-24T12:56:54;13.80;96.90
7016;DHT22;3548;48.402;9.990;2023-05-24T12:59:21;13.90;96.80
7016;DHT22;3548;48.402;9.990;2023-05-24T13:01:46;13.90;96.50
7016;DHT22;3548;48.402;9.990;2023-05-24T13:04:17;14.00;96.80
7016;DHT22;3548;48.402;9.990;2023-05-24T13:06:43;14.00;96.70
7016;DHT22;3548;48.402;9.990;2023-05-24T13:09:08;13.90;96.90
7016;DHT22;3548;48.402;9.990;2023-05-24T13:11:35;13.80;97.20
7016;DHT22;3548;48.402;9.990;2023-05-24T13:14:02;13.70;97.30
7016;DHT22;3548;48.402;9.990;2023-05-24T13:16:28;13.70;97.60
7016;DHT22;3548;48.402;9.990;2023-05-24T13:18:54;13.70;98.00
7016;DHT22;3548;48.402;9.990;2023-05-24T13:21:20;13.80;98.00
7016;DHT22;3548;48.402;9.990;2023-05-24T13:23:46;13.70;97.50
7016;DHT22;3548;48.402;9.990;2023-05-24T13:26:12;13.80;97.70
7016;DHT22;3548;48.402;9.990;2023-05-24T13:28:37;13.80;98.00
7016;DHT22;3548;48.402;9.990;2023-05-24T13:31:03;13.90;97.50
7016;DHT22;3548;48.402;9.990;2023-05-24T13:33:30;13.90;97.20
7016;DHT22;3548;48.402;9.990;2023-05-24T13:35:56;13.90;97.30
7016;DHT22;3548;48.402;9.990;2023-05-24T13:38:22;13.90;97.40
7016;DHT22;3548;48.402;9.990;2023-05-24T13:40:48;13.90;97.40
7016;DHT22;3548;48.402;9.990;2023-05-24T13:43:14;14.00;97.50
7016;DHT22;3548;48.402;9.990;2023-05-24T13:45:40;14.10;96.80
7016;DHT22;3548;48.402;9.990;2023-05-24T13:48:05;14.00;97.30
7016;DHT22;3548;48.402;9.990;2023-05-24T13:50:34;14.00;97.70
7016;DHT22;3548;48.402;9.990;2023-05-24T13:53:00;14.00;97.50
7016;DHT22;3548;48.402;9.990;2023-05-24T13:55:31;14.00;97.00
7016;DHT22;3548;48.402;9.990;2023-05-24T13:57:59;13.90;97.10
7016;DHT22;3548;48.402;9.990;2023-05-24T14:00:26;13.80;97.00
7016;DHT22;3548;48.402;9.990;2023-05-24T14:02:52;13.60;97.00
7016;DHT22;3548;48.402;9.990;2023-05-24T14:05:18;13.50;97.40
7016;DHT22;3548;48.402;9.990;2023-05-24T14:07:45;13.40;97.30
7016;DHT22;3548;48.402;9.990;2023-05-24T14:10:11;13.30;97.50
7016;DHT22;3548;48.402;9.990;2023-05-24T14:12:37;13.30;97.30
7016;DHT22;3548;48.402;9.990;2023-05-24T14:15:03;13.30;97.30
7016;DHT22;3548;48.402;9.990;2023-05-24T14:17:30;13.30;97.40
7016;DHT22;3548;48.402;9.990;2023-05-24T14:19:56;13.50;97.30
7016;DHT22;3548;48.402;9.990;2023-05-24T14:22:22;13.60;97.00
7016;DHT22;3548;48.402;9.990;2023-05-24T14:24:50;13.80;97.40
7016;DHT22;3548;48.402;9.990;2023-05-24T14:27:15;13.80;96.60
7016;DHT22;3548;48.402;9.990;2023-05-24T14:29:41;13.80;96.50
7016;DHT22;3548;48.402;9.990;2023-05-24T14:32:07;14.00;96.80
7016;DHT22;3548;48.402;9.990;2023-05-24T14:34:33;14.30;96.80
7016;DHT22;3548;48.402;9.990;2023-05-24T14:36:59;14.60;95.80
7016;DHT22;3548;48.402;9.990;2023-05-24T14:39:24;14.60;96.00
7016;DHT22;3548;48.402;9.990;2023-05-24T14:41:50;14.50;96.10
7016;DHT22;3548;48.402;9.990;2023-05-24T14:44:16;14.50;95.80
7016;DHT22;3548;48.402;9.990;2023-05-24T14:46:42;14.60;95.50
7016;DHT22;3548;48.402;9.990;2023-05-24T14:49:08;14.80;95.30
7016;DHT22;3548;48.402;9.990;2023-05-24T14:51:33;15.00;94.70
7016;DHT22;3548;48.402;9.990;2023-05-24T14:53:59;15.10;94.30
7016;DHT22;3548;48.402;9.990;2023-05-24T14:56:24;15.30;94.90
7016;DHT22;3548;48.402;9.990;2023-05-24T14:58:50;15.40;93.70
7016;DHT22;3548;48.402;9.990;2023-05-24T15:01:16;15.50;93.90
7016;DHT22;3548;48.402;9.990;2023-05-24T15:03:41;15.60;93.20
7016;DHT22;3548;48.402;9.990;2023-05-24T15:06:07;15.60;92.90
7016;DHT22;3548;48.402;9.990;2023-05-24T15:08:33;15.60;93.10
7016;DHT22;3548;48.402;9.990;2023-05-24T15:10:59;15.60;92.40
7016;DHT22;3548;48.402;9.990;2023-05-24T15:13:25;15.40;92.60
7016;DHT22;3548;48.402;9.990;2023-05-24T15:15:50;15.30;92.60
7016;DHT22;3548;48.402;9.990;2023-05-24T15:18:18;15.30;92.20
7016;DHT22;3548;48.402;9.990;2023-05-24T15:20:43;15.30;91.80
7016;DHT22;3548;48.402;9.990;2023-05-24T15:23:09;15.10;92.00
7016;DHT22;3548;48.402;9.990;2023-05-24T15:25:35;15.20;92.60
7016;DHT22;3548;48.402;9.990;2023-05-24T15:28:01;15.20;92.50
7016;DHT22;3548;48.402;9.990;2023-05-24T15:30:27;15.30;92.20
7016;DHT22;3548;48.402;9.990;2023-05-24T15:32:53;15.50;91.70
7016;DHT22;3548;48.402;9.990;2023-05-24T15:35:18;15.50;91.70
7016;DHT22;3548;48.402;9.990;2023-05-24T15:37:44;15.50;92.00
7016;DHT22;3548;48.402;9.990;2023-05-24T15:40:11;15.50;91.80
7016;DHT22;3548;48.402;9.990;2023-05-24T15:42:37;15.50;91.50
7016;DHT22;3548;48.402;9.990;2023-05-24T15:45:04;15.40;91.80
7016;DHT22;3548;48.402;9.990;2023-05-24T15:47:30;15.30;91.70
7016;DHT22;3548;48.402;9.990;2023-05-24T15:50:01;15.30;91.90
7016;DHT22;3548;48.402;9.990;2023-05-24T15:52:26;15.30;92.00
7016;DHT22;3548;48.402;9.990;2023-05-24T15:54:52;15.10;91.90
7016;DHT22;3548;48.402;9.990;2023-05-24T15:57:17;14.90;92.50
7016;DHT22;3548;48.402;9.990;2023-05-24T15:59:43;14.80;92.40
7016;DHT22;3548;48.402;9.990;2023-05-24T16:02:09;14.80;92.50
7016;DHT22;3548;48.402;9.990;2023-05-24T16:04:35;14.70;92.70
7016;DHT22;3548;48.402;9.990;2023-05-24T16:07:00;14.60;92.80
7016;DHT22;3548;48.402;9.990;2023-05-24T16:09:26;14.60;92.50
7016;DHT22;3548;48.402;9.990;2023-05-24T16:11:53;14.50;92.70